sensor_id;sensor_type;location;lat;lon;timestamp;P1;durP1;ratioP1;P2;durP2;ratioP2
13687;SDS011;6916;51.504;7.416;2023-06-26T00:03:44;5.63;;;5.13;;
13687;SDS011;6916;51.504;7.416;2023-06-26T00:13:47;5.63;;;5.13;;
13687;SDS011;6916;51.504;7.416;2023-06-26T00:23:49;4.80;;;4.40;;
13687;SDS011;6916;51.504;7.416;2023-06-26T00:33:52;5.63;;;4.93;;
13687;SDS011;6916;51.504;7.416;2023-06-26T00:43:55;6.13;;;4.75;;
13687;SDS011;6916;51.504;7.416;2023-06-26T00:53:57;5.82;;;5.03;;
13687;SDS011;6916;51.504;7.416;2023-06-26T01:04:01;5.53;;;4.60;;
13687;SDS011;6916;51.504;7.416;2023-06-26T01:14:04;6.13;;;4.40;;
13687;SDS011;6916;51.504;7.416;2023-06-26T01:24:16;4.93;;;4.40;;
13687;SDS011;6916;51.504;7.416;2023-06-26T01:34:24;5.85;;;5.03;;
13687;SDS011;6916;51.504;7.416;2023-06-26T01:44:28;4.75;;;4.22;;
13687;SDS011;6916;51.504;7.416;2023-06-26T01:54:33;4.97;;;4.57;;
13687;SDS011;6916;51.504;7.416;2023-06-26T02:04:41;6.18;;;4.85;;
13687;SDS011;6916;51.504;7.416;2023-06-26T02:14:44;5.18;;;4.57;;
13687;SDS011;6916;51.504;7.416;2023-06-26T02:24:47;5.03;;;4.20;;
13687;SDS011;6916;51.504;7.416;2023-06-26T02:34:49;4.75;;;4.32;;
13687;SDS011;6916;51.504;7.416;2023-06-26T02:44:54;6.88;;;4.70;;
13687;SDS011;6916;51.504;7.416;2023-06-26T02:54:57;5.05;;;4.32;;
13687;SDS011;6916;51.504;7.416;2023-06-26T03:04:59;6.00;;;4.53;;
13687;SDS011;6916;51.504;7.416;2023-06-26T03:15:03;6.95;;;4.93;;
13687;SDS011;6916;51.504;7.416;2023-06-26T03:25:06;5.25;;;4.45;;
13687;SDS011;6916;51.504;7.416;2023-06-26T03:35:08;10.32;;;4.75;;
13687;SDS011;6916;51.504;7.416;2023-06-26T03:45:11;5.05;;;4.65;;
13687;SDS011;6916;51.504;7.416;2023-06-26T03:55:16;5.53;;;4.50;;
13687;SDS011;6916;51.504;7.416;2023-06-26T04:05:21;7.07;;;4.85;;
13687;SDS011;6916;51.504;7.416;2023-06-26T04:15:24;5.75;;;4.68;;
13687;SDS011;6916;51.504;7.416;2023-06-26T04:25:27;5.70;;;4.65;;
13687;SDS011;6916;51.504;7.416;2023-06-26T04:35:31;6.97;;;5.05;;
13687;SDS011;6916;51.504;7.416;2023-06-26T04:45:38;6.45;;;5.00;;
13687;SDS011;6916;51.504;7.416;2023-06-26T04:55:41;6.22;;;5.60;;
13687;SDS011;6916;51.504;7.416;2023-06-26T05:05:43;8.55;;;4.90;;
13687;SDS011;6916;51.504;7.416;2023-06-26T05:15:46;7.45;;;5.15;;
13687;SDS011;6916;51.504;7.416;2023-06-26T05:25:48;5.78;;;5.20;;
13687;SDS011;6916;51.504;7.416;2023-06-26T05:35:52;6.13;;;5.10;;
13687;SDS011;6916;51.504;7.416;2023-06-26T05:45:56;10.73;;;5.05;;
13687;SDS011;6916;51.504;7.416;2023-06-26T05:55:59;7.93;;;6.00;;
13687;SDS011;6916;51.504;7.416;2023-06-26T06:06:02;10.40;;;6.20;;
13687;SDS011;6916;51.504;7.416;2023-06-26T06:16:05;7.78;;;5.75;;
13687;SDS011;6916;51.504;7.416;2023-06-26T06:26:08;8.85;;;6.80;;
13687;SDS011;6916;51.504;7.416;2023-06-26T06:36:10;9.77;;;6.28;;
13687;SDS011;6916;51.504;7.416;2023-06-26T06:46:12;12.38;;;6.00;;
13687;SDS011;6916;51.504;7.416;2023-06-26T06:56:15;8.65;;;4.90;;
13687;SDS011;6916;51.504;7.416;2023-06-26T07:06:18;7.47;;;5.40;;
13687;SDS011;6916;51.504;7.416;2023-06-26T07:16:21;10.82;;;4.47;;
13687;SDS011;6916;51.504;7.416;2023-06-26T07:26:23;6.60;;;5.40;;
13687;SDS011;6916;51.504;7.416;2023-06-26T07:36:29;12.45;;;5.45;;
13687;SDS011;6916;51.504;7.416;2023-06-26T07:46:31;13.70;;;5.68;;
13687;SDS011;6916;51.504;7.416;2023-06-26T08:07:13;9.48;;;6.15;;
13687;SDS011;6916;51.504;7.416;2023-06-26T08:17:16;12.68;;;6.65;;
13687;SDS011;6916;51.504;7.416;2023-06-26T08:27:18;14.32;;;7.30;;
13687;SDS011;6916;51.504;7.416;2023-06-26T08:37:21;13.63;;;6.43;;
13687;SDS011;6916;51.504;7.416;2023-06-26T08:47:23;15.57;;;8.23;;
13687;SDS011;6916;51.504;7.416;2023-06-26T08:57:26;12.90;;;8.90;;
13687;SDS011;6916;51.504;7.416;2023-06-26T09:07:30;19.42;;;16.77;;
13687;SDS011;6916;51.504;7.416;2023-06-26T09:17:39;16.60;;;11.75;;
13687;SDS011;6916;51.504;7.416;2023-06-26T09:27:45;17.80;;;12.57;;
13687;SDS011;6916;51.504;7.416;2023-06-26T09:37:48;21.63;;;8.57;;
13687;SDS011;6916;51.504;7.416;2023-06-26T09:47:50;13.50;;;6.22;;
13687;SDS011;6916;51.504;7.416;2023-06-26T09:57:53;10.73;;;4.90;;
13687;SDS011;6916;51.504;7.416;2023-06-26T10:07:58;9.93;;;4.53;;
13687;SDS011;6916;51.504;7.416;2023-06-26T10:18:01;9.32;;;3.83;;
13687;SDS011;6916;51.504;7.416;2023-06-26T10:28:04;6.88;;;3.63;;
13687;SDS011;6916;51.504;7.416;2023-06-26T10:38:07;5.72;;;3.40;;
13687;SDS011;6916;51.504;7.416;2023-06-26T10:48:12;6.72;;;3.03;;
13687;SDS011;6916;51.504;7.416;2023-06-26T11:08:46;9.07;;;2.80;;
13687;SDS011;6916;51.504;7.416;2023-06-26T11:18:57;9.00;;;2.78;;
13687;SDS011;6916;51.504;7.416;2023-06-26T11:29:00;5.55;;;2.80;;
13687;SDS011;6916;51.504;7.416;2023-06-26T11:39:03;6.57;;;3.20;;
13687;SDS011;6916;51.504;7.416;2023-06-26T11:49:09;6.18;;;2.83;;
13687;SDS011;6916;51.504;7.416;2023-06-26T11:59:11;5.55;;;2.50;;
13687;SDS011;6916;51.504;7.416;2023-06-26T12:09:15;5.65;;;1.60;;
13687;SDS011;6916;51.504;7.416;2023-06-26T12:19:26;5.38;;;1.48;;
13687;SDS011;6916;51.504;7.416;2023-06-26T12:29:32;4.82;;;1.42;;
13687;SDS011;6916;51.504;7.416;2023-06-26T12:50:11;2.85;;;0.68;;
13687;SDS011;6916;51.504;7.416;2023-06-26T13:00:14;7.10;;;1.17;;
13687;SDS011;6916;51.504;7.416;2023-06-26T13:10:17;2.42;;;0.80;;
13687;SDS011;6916;51.504;7.416;2023-06-26T13:20:21;3.28;;;0.70;;
13687;SDS011;6916;51.504;7.416;2023-06-26T13:30:23;5.00;;;0.73;;
13687;SDS011;6916;51.504;7.416;2023-06-26T13:40:26;3.70;;;0.50;;
13687;SDS011;6916;51.504;7.416;2023-06-26T13:50:29;2.03;;;0.88;;
13687;SDS011;6916;51.504;7.416;2023-06-26T14:00:49;1.80;;;0.52;;
13687;SDS011;6916;51.504;7.416;2023-06-26T14:10:55;3.97;;;0.70;;
13687;SDS011;6916;51.504;7.416;2023-06-26T14:20:58;3.97;;;0.77;;
13687;SDS011;6916;51.504;7.416;2023-06-26T14:31:00;3.33;;;0.55;;
13687;SDS011;6916;51.504;7.416;2023-06-26T14:41:03;2.05;;;0.55;;
13687;SDS011;6916;51.504;7.416;2023-06-26T14:51:06;5.07;;;0.70;;
13687;SDS011;6916;51.504;7.416;2023-06-26T15:01:08;1.75;;;0.40;;
13687;SDS011;6916;51.504;7.416;2023-06-26T15:11:11;1.30;;;0.68;;
13687;SDS011;6916;51.504;7.416;2023-06-26T15:21:14;2.20;;;0.70;;
13687;SDS011;6916;51.504;7.416;2023-06-26T15:31:16;3.78;;;0.80;;
13687;SDS011;6916;51.504;7.416;2023-06-26T15:41:19;2.55;;;0.40;;
13687;SDS011;6916;51.504;7.416;2023-06-26T15:51:22;3.67;;;1.23;;
13687;SDS011;6916;51.504;7.416;2023-06-26T16:01:24;4.18;;;0.77;;
13687;SDS011;6916;51.504;7.416;2023-06-26T16:11:28;1.17;;;0.60;;
13687;SDS011;6916;51.504;7.416;2023-06-26T16:21:30;2.15;;;1.00;;
13687;SDS011;6916;51.504;7.416;2023-06-26T16:31:33;2.55;;;0.70;;
13687;SDS011;6916;51.504;7.416;2023-06-26T16:41:36;2.22;;;0.52;;
13687;SDS011;6916;51.504;7.416;2023-06-26T16:51:39;2.05;;;0.73;;
13687;SDS011;6916;51.504;7.416;2023-06-26T17:01:41;2.85;;;0.60;;
13687;SDS011;6916;51.504;7.416;2023-06-26T17:11:44;1.90;;;0.60;;
13687;SDS011;6916;51.504;7.416;2023-06-26T17:21:46;5.55;;;0.50;;
13687;SDS011;6916;51.504;7.416;2023-06-26T17:31:50;3.65;;;0.70;;
13687;SDS011;6916;51.504;7.416;2023-06-26T17:41:54;1.98;;;0.45;;
13687;SDS011;6916;51.504;7.416;2023-06-26T17:51:58;4.07;;;0.50;;
13687;SDS011;6916;51.504;7.416;2023-06-26T18:02:02;2.67;;;0.93;;
13687;SDS011;6916;51.504;7.416;2023-06-26T18:12:07;3.00;;;0.77;;
13687;SDS011;6916;51.504;7.416;2023-06-26T18:22:09;3.00;;;1.20;;
13687;SDS011;6916;51.504;7.416;2023-06-26T18:32:12;2.03;;;0.88;;
13687;SDS011;6916;51.504;7.416;2023-06-26T18:42:15;2.80;;;0.50;;
13687;SDS011;6916;51.504;7.416;2023-06-26T18:52:18;1.67;;;0.52;;
13687;SDS011;6916;51.504;7.416;2023-06-26T19:02:23;3.75;;;0.40;;
13687;SDS011;6916;51.504;7.416;2023-06-26T19:12:26;0.95;;;0.43;;
13687;SDS011;6916;51.504;7.416;2023-06-26T19:22:31;1.58;;;0.50;;
13687;SDS011;6916;51.504;7.416;2023-06-26T19:32:33;2.35;;;0.35;;
13687;SDS011;6916;51.504;7.416;2023-06-26T19:42:37;0.55;;;0.30;;
13687;SDS011;6916;51.504;7.416;2023-06-26T19:52:40;0.77;;;0.60;;
13687;SDS011;6916;51.504;7.416;2023-06-26T20:02:42;4.38;;;0.60;;
13687;SDS011;6916;51.504;7.416;2023-06-26T20:12:45;0.45;;;0.30;;
13687;SDS011;6916;51.504;7.416;2023-06-26T20:22:48;1.63;;;1.13;;
13687;SDS011;6916;51.504;7.416;2023-06-26T20:32:51;0.70;;;0.30;;
13687;SDS011;6916;51.504;7.416;2023-06-26T20:42:53;0.63;;;0.40;;
13687;SDS011;6916;51.504;7.416;2023-06-26T20:52:56;0.40;;;0.28;;
13687;SDS011;6916;51.504;7.416;2023-06-26T21:03:00;0.93;;;0.50;;
13687;SDS011;6916;51.504;7.416;2023-06-26T21:13:03;3.13;;;0.70;;
13687;SDS011;6916;51.504;7.416;2023-06-26T21:23:07;3.13;;;0.63;;
13687;SDS011;6916;51.504;7.416;2023-06-26T21:33:10;1.55;;;0.45;;
13687;SDS011;6916;51.504;7.416;2023-06-26T21:43:12;3.65;;;0.77;;
13687;SDS011;6916;51.504;7.416;2023-06-26T21:53:15;1.63;;;0.60;;
13687;SDS011;6916;51.504;7.416;2023-06-26T22:03:18;2.65;;;0.57;;
13687;SDS011;6916;51.504;7.416;2023-06-26T22:13:21;2.35;;;0.60;;
13687;SDS011;6916;51.504;7.416;2023-06-26T22:23:24;3.20;;;0.50;;
13687;SDS011;6916;51.504;7.416;2023-06-26T22:33:26;2.08;;;0.75;;
13687;SDS011;6916;51.504;7.416;2023-06-26T22:43:32;1.63;;;0.82;;
13687;SDS011;6916;51.504;7.416;2023-06-26T22:53:36;0.93;;;0.60;;
13687;SDS011;6916;51.504;7.416;2023-06-26T23:03:41;3.10;;;0.73;;
13687;SDS011;6916;51.504;7.416;2023-06-26T23:13:45;2.08;;;0.85;;
13687;SDS011;6916;51.504;7.416;2023-06-26T23:23:47;2.13;;;0.60;;
13687;SDS011;6916;51.504;7.416;2023-06-26T23:33:51;1.45;;;0.60;;
13687;SDS011;6916;51.504;7.416;2023-06-26T23:43:55;3.65;;;0.88;;
13687;SDS011;6916;51.504;7.416;2023-06-26T23:53:58;2.63;;;0.70;;
